sensor_id;sensor_type;location;lat;lon;timestamp;temperature;humidity
24162;DHT22;12318;51.262;7.066;2023-03-14T00:01:59;10.90;99.90
24162;DHT22;12318;51.262;7.066;2023-03-14T00:04:25;10.90;99.90
24162;DHT22;12318;51.262;7.066;2023-03-14T00:06:51;10.80;99.90
24162;DHT22;12318;51.262;7.066;2023-03-14T00:09:17;10.80;99.90
24162;DHT22;12318;51.262;7.066;2023-03-14T00:11:46;10.80;99.90
24162;DHT22;12318;51.262;7.066;2023-03-14T00:14:22;10.80;99.90
24162;DHT22;12318;51.262;7.066;2023-03-14T00:16:51;10.70;99.90
24162;DHT22;12318;51.262;7.066;2023-03-14T00:19:17;10.70;99.90
24162;DHT22;12318;51.262;7.066;2023-03-14T00:21:42;10.70;99.90
24162;DHT22;12318;51.262;7.066;2023-03-14T00:24:09;10.70;99.90
24162;DHT22;12318;51.262;7.066;2023-03-14T00:26:34;10.80;99.90
24162;DHT22;12318;51.262;7.066;2023-03-14T00:29:00;10.80;99.90
24162;DHT22;12318;51.262;7.066;2023-03-14T00:31:26;10.80;99.90
24162;DHT22;12318;51.262;7.066;2023-03-14T00:33:52;10.80;99.90
24162;DHT22;12318;51.262;7.066;2023-03-14T00:36:19;10.70;99.90
24162;DHT22;12318;51.262;7.066;2023-03-14T00:38:47;10.70;99.90
24162;DHT22;12318;51.262;7.066;2023-03-14T00:41:16;10.80;99.90
24162;DHT22;12318;51.262;7.066;2023-03-14T00:43:42;10.80;99.90
24162;DHT22;12318;51.262;7.066;2023-03-14T00:46:08;10.80;99.90
24162;DHT22;12318;51.262;7.066;2023-03-14T00:48:35;10.70;99.90
24162;DHT22;12318;51.262;7.066;2023-03-14T00:51:02;10.80;99.90
24162;DHT22;12318;51.262;7.066;2023-03-14T00:53:27;10.80;99.90
24162;DHT22;12318;51.262;7.066;2023-03-14T00:55:53;10.80;99.90
24162;DHT22;12318;51.262;7.066;2023-03-14T00:58:19;10.80;99.90
24162;DHT22;12318;51.262;7.066;2023-03-14T01:00:45;10.80;99.90
24162;DHT22;12318;51.262;7.066;2023-03-14T01:03:12;10.50;99.90
24162;DHT22;12318;51.262;7.066;2023-03-14T01:05:39;10.40;99.90
24162;DHT22;12318;51.262;7.066;2023-03-14T01:08:05;10.20;99.90
24162;DHT22;12318;51.262;7.066;2023-03-14T01:10:33;10.00;99.90
24162;DHT22;12318;51.262;7.066;2023-03-14T01:12:58;9.90;99.90
24162;DHT22;12318;51.262;7.066;2023-03-14T01:15:24;9.90;99.90
24162;DHT22;12318;51.262;7.066;2023-03-14T01:17:50;9.70;99.90
24162;DHT22;12318;51.262;7.066;2023-03-14T01:20:16;9.60;99.90
24162;DHT22;12318;51.262;7.066;2023-03-14T01:22:43;9.50;99.90
24162;DHT22;12318;51.262;7.066;2023-03-14T01:25:11;9.50;99.90
24162;DHT22;12318;51.262;7.066;2023-03-14T01:27:37;9.40;99.90
24162;DHT22;12318;51.262;7.066;2023-03-14T01:30:04;9.30;99.90
24162;DHT22;12318;51.262;7.066;2023-03-14T01:32:30;9.40;99.90
24162;DHT22;12318;51.262;7.066;2023-03-14T01:34:56;9.30;99.90
24162;DHT22;12318;51.262;7.066;2023-03-14T01:37:22;9.20;99.90
24162;DHT22;12318;51.262;7.066;2023-03-14T01:39:48;9.20;99.90
24162;DHT22;12318;51.262;7.066;2023-03-14T01:42:14;9.10;99.90
24162;DHT22;12318;51.262;7.066;2023-03-14T01:47:51;9.10;99.90
24162;DHT22;12318;51.262;7.066;2023-03-14T01:50:17;9.10;99.90
24162;DHT22;12318;51.262;7.066;2023-03-14T01:52:46;9.10;99.90
24162;DHT22;12318;51.262;7.066;2023-03-14T01:55:16;9.10;99.90
24162;DHT22;12318;51.262;7.066;2023-03-14T01:57:58;9.10;99.90
24162;DHT22;12318;51.262;7.066;2023-03-14T02:00:26;9.20;99.90
24162;DHT22;12318;51.262;7.066;2023-03-14T02:03:05;9.10;99.90
24162;DHT22;12318;51.262;7.066;2023-03-14T02:05:35;9.20;99.90
24162;DHT22;12318;51.262;7.066;2023-03-14T02:08:05;9.20;99.90
24162;DHT22;12318;51.262;7.066;2023-03-14T02:10:35;9.20;99.90
24162;DHT22;12318;51.262;7.066;2023-03-14T02:13:04;9.20;99.90
24162;DHT22;12318;51.262;7.066;2023-03-14T02:15:30;9.30;99.90
24162;DHT22;12318;51.262;7.066;2023-03-14T02:17:58;9.30;99.90
24162;DHT22;12318;51.262;7.066;2023-03-14T02:23:08;9.30;99.90
24162;DHT22;12318;51.262;7.066;2023-03-14T02:28:09;9.40;99.90
24162;DHT22;12318;51.262;7.066;2023-03-14T02:30:35;9.40;99.90
24162;DHT22;12318;51.262;7.066;2023-03-14T02:33:08;9.40;99.90
24162;DHT22;12318;51.262;7.066;2023-03-14T02:35:58;9.40;99.90
24162;DHT22;12318;51.262;7.066;2023-03-14T02:41:08;9.30;99.90
24162;DHT22;12318;51.262;7.066;2023-03-14T02:43:34;9.30;99.90
24162;DHT22;12318;51.262;7.066;2023-03-14T02:46:02;9.30;99.90
24162;DHT22;12318;51.262;7.066;2023-03-14T02:49:01;9.30;99.90
24162;DHT22;12318;51.262;7.066;2023-03-14T02:51:27;9.30;99.90
24162;DHT22;12318;51.262;7.066;2023-03-14T02:53:54;9.40;99.90
24162;DHT22;12318;51.262;7.066;2023-03-14T02:56:20;9.30;99.90
24162;DHT22;12318;51.262;7.066;2023-03-14T02:58:45;9.40;99.90
24162;DHT22;12318;51.262;7.066;2023-03-14T03:01:11;9.40;99.90
24162;DHT22;12318;51.262;7.066;2023-03-14T03:03:37;9.50;99.90
24162;DHT22;12318;51.262;7.066;2023-03-14T03:06:03;9.40;99.90
24162;DHT22;12318;51.262;7.066;2023-03-14T03:08:29;9.40;99.90
24162;DHT22;12318;51.262;7.066;2023-03-14T03:10:56;9.40;99.90
24162;DHT22;12318;51.262;7.066;2023-03-14T03:13:22;9.40;99.90
24162;DHT22;12318;51.262;7.066;2023-03-14T03:15:50;9.40;99.90
24162;DHT22;12318;51.262;7.066;2023-03-14T03:18:16;9.40;99.90
24162;DHT22;12318;51.262;7.066;2023-03-14T03:20:42;9.30;99.90
24162;DHT22;12318;51.262;7.066;2023-03-14T03:23:07;9.30;99.90
24162;DHT22;12318;51.262;7.066;2023-03-14T03:25:33;9.30;99.90
24162;DHT22;12318;51.262;7.066;2023-03-14T03:27:59;9.40;99.90
24162;DHT22;12318;51.262;7.066;2023-03-14T03:30:25;9.40;99.90
24162;DHT22;12318;51.262;7.066;2023-03-14T03:32:50;9.40;99.90
24162;DHT22;12318;51.262;7.066;2023-03-14T03:35:17;9.40;99.90
24162;DHT22;12318;51.262;7.066;2023-03-14T03:37:43;9.40;99.90
24162;DHT22;12318;51.262;7.066;2023-03-14T03:40:09;9.40;99.90
24162;DHT22;12318;51.262;7.066;2023-03-14T03:42:36;9.40;99.90
24162;DHT22;12318;51.262;7.066;2023-03-14T03:45:03;9.40;99.90
24162;DHT22;12318;51.262;7.066;2023-03-14T03:47:30;9.30;99.90
24162;DHT22;12318;51.262;7.066;2023-03-14T03:49:56;9.20;99.90
24162;DHT22;12318;51.262;7.066;2023-03-14T03:52:22;9.20;99.90
24162;DHT22;12318;51.262;7.066;2023-03-14T03:54:48;9.20;99.90
24162;DHT22;12318;51.262;7.066;2023-03-14T03:57:14;9.20;99.90
24162;DHT22;12318;51.262;7.066;2023-03-14T03:59:39;9.10;99.90
24162;DHT22;12318;51.262;7.066;2023-03-14T04:02:06;9.10;99.90
24162;DHT22;12318;51.262;7.066;2023-03-14T04:04:32;9.00;99.90
24162;DHT22;12318;51.262;7.066;2023-03-14T04:06:58;9.10;99.90
24162;DHT22;12318;51.262;7.066;2023-03-14T04:09:24;9.10;99.90
24162;DHT22;12318;51.262;7.066;2023-03-14T04:11:50;9.30;99.90
24162;DHT22;12318;51.262;7.066;2023-03-14T04:14:16;9.20;99.90
24162;DHT22;12318;51.262;7.066;2023-03-14T04:16:43;9.30;99.90
24162;DHT22;12318;51.262;7.066;2023-03-14T04:19:08;9.20;99.90
24162;DHT22;12318;51.262;7.066;2023-03-14T04:21:34;9.20;99.90
24162;DHT22;12318;51.262;7.066;2023-03-14T04:24:00;9.00;99.90
24162;DHT22;12318;51.262;7.066;2023-03-14T04:26:25;9.00;99.90
24162;DHT22;12318;51.262;7.066;2023-03-14T04:28:51;9.10;99.90
24162;DHT22;12318;51.262;7.066;2023-03-14T04:31:21;9.10;99.90
24162;DHT22;12318;51.262;7.066;2023-03-14T04:33:47;9.00;99.90
24162;DHT22;12318;51.262;7.066;2023-03-14T04:36:13;9.00;99.90
24162;DHT22;12318;51.262;7.066;2023-03-14T04:38:39;9.00;99.90
24162;DHT22;12318;51.262;7.066;2023-03-14T04:41:06;9.10;99.90
24162;DHT22;12318;51.262;7.066;2023-03-14T04:43:32;9.10;99.90
24162;DHT22;12318;51.262;7.066;2023-03-14T04:46:00;9.10;99.90
24162;DHT22;12318;51.262;7.066;2023-03-14T04:48:26;9.10;99.90
24162;DHT22;12318;51.262;7.066;2023-03-14T04:50:52;9.20;99.90
24162;DHT22;12318;51.262;7.066;2023-03-14T04:53:18;9.20;99.90
24162;DHT22;12318;51.262;7.066;2023-03-14T04:55:49;9.20;99.90
24162;DHT22;12318;51.262;7.066;2023-03-14T04:58:15;9.20;99.90
24162;DHT22;12318;51.262;7.066;2023-03-14T05:00:41;9.30;99.90
24162;DHT22;12318;51.262;7.066;2023-03-14T05:03:07;9.20;99.90
24162;DHT22;12318;51.262;7.066;2023-03-14T05:05:33;9.30;99.90
24162;DHT22;12318;51.262;7.066;2023-03-14T05:07:58;9.30;99.90
24162;DHT22;12318;51.262;7.066;2023-03-14T05:10:24;9.30;99.90
24162;DHT22;12318;51.262;7.066;2023-03-14T05:12:51;9.30;99.90
24162;DHT22;12318;51.262;7.066;2023-03-14T05:15:17;9.40;99.90
24162;DHT22;12318;51.262;7.066;2023-03-14T05:17:42;9.40;99.90
24162;DHT22;12318;51.262;7.066;2023-03-14T05:20:08;9.40;99.90
24162;DHT22;12318;51.262;7.066;2023-03-14T05:22:39;9.40;99.90
24162;DHT22;12318;51.262;7.066;2023-03-14T05:25:05;9.50;99.90
24162;DHT22;12318;51.262;7.066;2023-03-14T05:27:31;9.40;99.90
24162;DHT22;12318;51.262;7.066;2023-03-14T05:29:57;9.40;99.90
24162;DHT22;12318;51.262;7.066;2023-03-14T05:32:23;9.40;99.90
24162;DHT22;12318;51.262;7.066;2023-03-14T05:34:48;9.40;99.90
24162;DHT22;12318;51.262;7.066;2023-03-14T05:37:14;9.40;99.90
24162;DHT22;12318;51.262;7.066;2023-03-14T05:39:40;9.40;99.90
24162;DHT22;12318;51.262;7.066;2023-03-14T05:42:06;9.40;99.90
24162;DHT22;12318;51.262;7.066;2023-03-14T05:44:31;9.40;99.90
24162;DHT22;12318;51.262;7.066;2023-03-14T05:46:57;9.40;99.90
24162;DHT22;12318;51.262;7.066;2023-03-14T05:49:23;9.40;99.90
24162;DHT22;12318;51.262;7.066;2023-03-14T05:51:49;9.50;99.90
24162;DHT22;12318;51.262;7.066;2023-03-14T05:54:14;9.40;99.90
24162;DHT22;12318;51.262;7.066;2023-03-14T05:56:40;9.40;99.90
24162;DHT22;12318;51.262;7.066;2023-03-14T05:59:06;9.40;99.90
24162;DHT22;12318;51.262;7.066;2023-03-14T06:01:34;9.40;99.90
24162;DHT22;12318;51.262;7.066;2023-03-14T06:04:00;9.40;99.90
24162;DHT22;12318;51.262;7.066;2023-03-14T06:06:27;9.40;99.90
24162;DHT22;12318;51.262;7.066;2023-03-14T06:08:52;9.40;99.90
24162;DHT22;12318;51.262;7.066;2023-03-14T06:11:18;9.40;99.90
24162;DHT22;12318;51.262;7.066;2023-03-14T06:13:44;9.40;99.90
24162;DHT22;12318;51.262;7.066;2023-03-14T06:16:10;9.40;99.90
24162;DHT22;12318;51.262;7.066;2023-03-14T06:18:36;9.40;99.90
24162;DHT22;12318;51.262;7.066;2023-03-14T06:21:01;9.50;99.90
24162;DHT22;12318;51.262;7.066;2023-03-14T06:23:27;9.40;99.90
24162;DHT22;12318;51.262;7.066;2023-03-14T06:25:55;9.50;99.90
24162;DHT22;12318;51.262;7.066;2023-03-14T06:28:21;9.40;99.90
24162;DHT22;12318;51.262;7.066;2023-03-14T06:30:47;9.40;99.90
24162;DHT22;12318;51.262;7.066;2023-03-14T06:33:12;9.40;99.90
24162;DHT22;12318;51.262;7.066;2023-03-14T06:35:38;9.50;99.90
24162;DHT22;12318;51.262;7.066;2023-03-14T06:38:04;9.40;99.90
24162;DHT22;12318;51.262;7.066;2023-03-14T06:40:30;9.40;99.90
24162;DHT22;12318;51.262;7.066;2023-03-14T06:42:56;9.50;99.90
24162;DHT22;12318;51.262;7.066;2023-03-14T06:45:21;9.50;99.90
24162;DHT22;12318;51.262;7.066;2023-03-14T06:47:47;9.40;99.90
24162;DHT22;12318;51.262;7.066;2023-03-14T06:50:13;9.40;99.90
24162;DHT22;12318;51.262;7.066;2023-03-14T06:52:38;9.40;99.90
24162;DHT22;12318;51.262;7.066;2023-03-14T06:55:16;9.40;99.90
24162;DHT22;12318;51.262;7.066;2023-03-14T06:57:42;9.40;99.90
24162;DHT22;12318;51.262;7.066;2023-03-14T07:00:10;9.40;99.90
24162;DHT22;12318;51.262;7.066;2023-03-14T07:02:36;9.40;99.90
24162;DHT22;12318;51.262;7.066;2023-03-14T07:05:03;9.50;99.90
24162;DHT22;12318;51.262;7.066;2023-03-14T07:07:29;9.50;99.90
24162;DHT22;12318;51.262;7.066;2023-03-14T07:09:54;9.60;99.90
24162;DHT22;12318;51.262;7.066;2023-03-14T07:12:58;9.60;99.90
24162;DHT22;12318;51.262;7.066;2023-03-14T07:15:34;9.60;99.90
24162;DHT22;12318;51.262;7.066;2023-03-14T07:18:00;9.70;99.90
24162;DHT22;12318;51.262;7.066;2023-03-14T07:21:02;9.70;99.90
24162;DHT22;12318;51.262;7.066;2023-03-14T07:23:38;9.70;99.90
24162;DHT22;12318;51.262;7.066;2023-03-14T07:26:04;9.70;99.90
24162;DHT22;12318;51.262;7.066;2023-03-14T07:28:30;9.70;99.90
24162;DHT22;12318;51.262;7.066;2023-03-14T07:30:56;9.60;99.90
24162;DHT22;12318;51.262;7.066;2023-03-14T07:33:22;9.70;99.90
24162;DHT22;12318;51.262;7.066;2023-03-14T07:35:49;9.70;99.90
24162;DHT22;12318;51.262;7.066;2023-03-14T07:38:18;9.60;99.90
24162;DHT22;12318;51.262;7.066;2023-03-14T07:40:43;9.60;99.90
24162;DHT22;12318;51.262;7.066;2023-03-14T07:43:09;9.60;99.90
24162;DHT22;12318;51.262;7.066;2023-03-14T07:45:38;9.70;99.90
24162;DHT22;12318;51.262;7.066;2023-03-14T07:48:07;9.70;99.90
24162;DHT22;12318;51.262;7.066;2023-03-14T07:50:39;9.80;99.90
24162;DHT22;12318;51.262;7.066;2023-03-14T07:53:05;9.80;99.90
24162;DHT22;12318;51.262;7.066;2023-03-14T07:55:31;9.80;99.90
24162;DHT22;12318;51.262;7.066;2023-03-14T07:57:57;9.80;99.90
24162;DHT22;12318;51.262;7.066;2023-03-14T08:00:23;9.80;99.90
24162;DHT22;12318;51.262;7.066;2023-03-14T08:02:48;9.90;99.90
24162;DHT22;12318;51.262;7.066;2023-03-14T08:05:26;9.90;99.90
24162;DHT22;12318;51.262;7.066;2023-03-14T08:07:56;9.90;99.90
24162;DHT22;12318;51.262;7.066;2023-03-14T08:10:22;9.90;99.90
24162;DHT22;12318;51.262;7.066;2023-03-14T08:12:53;9.90;99.90
24162;DHT22;12318;51.262;7.066;2023-03-14T08:15:19;10.00;99.90
24162;DHT22;12318;51.262;7.066;2023-03-14T08:23:43;10.20;99.90
24162;DHT22;12318;51.262;7.066;2023-03-14T08:26:08;10.30;99.90
24162;DHT22;12318;51.262;7.066;2023-03-14T08:28:34;10.10;99.90
24162;DHT22;12318;51.262;7.066;2023-03-14T08:31:09;10.30;99.90
24162;DHT22;12318;51.262;7.066;2023-03-14T08:33:35;10.30;99.90
24162;DHT22;12318;51.262;7.066;2023-03-14T08:36:01;10.30;99.90
24162;DHT22;12318;51.262;7.066;2023-03-14T08:38:27;10.40;99.90
24162;DHT22;12318;51.262;7.066;2023-03-14T08:41:19;10.40;99.90
24162;DHT22;12318;51.262;7.066;2023-03-14T08:44:14;10.50;99.90
24162;DHT22;12318;51.262;7.066;2023-03-14T08:47:06;10.30;99.90
24162;DHT22;12318;51.262;7.066;2023-03-14T08:53:30;10.50;99.90
24162;DHT22;12318;51.262;7.066;2023-03-14T08:56:00;10.40;99.90
24162;DHT22;12318;51.262;7.066;2023-03-14T09:01:24;10.50;99.90
24162;DHT22;12318;51.262;7.066;2023-03-14T09:04:02;10.60;99.90
24162;DHT22;12318;51.262;7.066;2023-03-14T09:06:37;10.70;99.90
24162;DHT22;12318;51.262;7.066;2023-03-14T09:09:19;10.80;99.90
24162;DHT22;12318;51.262;7.066;2023-03-14T09:12:08;10.60;99.90
24162;DHT22;12318;51.262;7.066;2023-03-14T09:14:34;10.50;99.90
24162;DHT22;12318;51.262;7.066;2023-03-14T09:17:09;10.50;99.90
24162;DHT22;12318;51.262;7.066;2023-03-14T09:19:35;10.50;99.90
24162;DHT22;12318;51.262;7.066;2023-03-14T09:22:11;10.50;99.90
24162;DHT22;12318;51.262;7.066;2023-03-14T09:24:42;10.50;99.90
24162;DHT22;12318;51.262;7.066;2023-03-14T09:27:12;10.50;99.90
24162;DHT22;12318;51.262;7.066;2023-03-14T09:29:37;10.50;99.90
24162;DHT22;12318;51.262;7.066;2023-03-14T09:32:03;10.40;99.90
24162;DHT22;12318;51.262;7.066;2023-03-14T09:34:31;10.30;99.90
24162;DHT22;12318;51.262;7.066;2023-03-14T09:37:06;10.30;99.90
24162;DHT22;12318;51.262;7.066;2023-03-14T09:39:48;10.40;99.90
24162;DHT22;12318;51.262;7.066;2023-03-14T09:42:18;10.30;99.90
24162;DHT22;12318;51.262;7.066;2023-03-14T09:45:00;9.40;99.90
24162;DHT22;12318;51.262;7.066;2023-03-14T09:47:33;8.70;99.90
24162;DHT22;12318;51.262;7.066;2023-03-14T09:50:03;8.30;99.90
24162;DHT22;12318;51.262;7.066;2023-03-14T09:52:36;8.30;99.90
24162;DHT22;12318;51.262;7.066;2023-03-14T09:55:05;8.10;99.90
24162;DHT22;12318;51.262;7.066;2023-03-14T09:57:35;8.10;99.90
24162;DHT22;12318;51.262;7.066;2023-03-14T10:00:20;8.00;99.90
24162;DHT22;12318;51.262;7.066;2023-03-14T10:05:52;8.10;99.90
24162;DHT22;12318;51.262;7.066;2023-03-14T10:08:21;8.00;99.90
24162;DHT22;12318;51.262;7.066;2023-03-14T10:10:52;8.10;99.90
24162;DHT22;12318;51.262;7.066;2023-03-14T10:13:24;8.20;99.90
24162;DHT22;12318;51.262;7.066;2023-03-14T10:15:59;8.20;99.90
24162;DHT22;12318;51.262;7.066;2023-03-14T10:18:38;8.00;99.90
24162;DHT22;12318;51.262;7.066;2023-03-14T10:24:32;8.00;99.90
24162;DHT22;12318;51.262;7.066;2023-03-14T10:27:01;8.20;99.90
24162;DHT22;12318;51.262;7.066;2023-03-14T10:29:37;8.20;99.90
24162;DHT22;12318;51.262;7.066;2023-03-14T10:35:23;8.00;99.90
24162;DHT22;12318;51.262;7.066;2023-03-14T10:38:02;7.90;99.90
24162;DHT22;12318;51.262;7.066;2023-03-14T10:40:55;8.00;99.90
24162;DHT22;12318;51.262;7.066;2023-03-14T10:43:31;8.00;99.90
24162;DHT22;12318;51.262;7.066;2023-03-14T10:46:31;8.00;99.90
24162;DHT22;12318;51.262;7.066;2023-03-14T10:49:22;7.90;99.90
24162;DHT22;12318;51.262;7.066;2023-03-14T10:51:54;8.00;99.90
24162;DHT22;12318;51.262;7.066;2023-03-14T10:54:23;7.90;99.90
24162;DHT22;12318;51.262;7.066;2023-03-14T10:57:01;7.90;99.90
24162;DHT22;12318;51.262;7.066;2023-03-14T10:59:39;8.00;99.90
24162;DHT22;12318;51.262;7.066;2023-03-14T11:02:40;8.00;99.90
24162;DHT22;12318;51.262;7.066;2023-03-14T11:08:55;8.10;99.90
24162;DHT22;12318;51.262;7.066;2023-03-14T11:11:50;8.10;99.90
24162;DHT22;12318;51.262;7.066;2023-03-14T11:14:29;7.80;99.90
24162;DHT22;12318;51.262;7.066;2023-03-14T11:17:05;7.60;99.90
24162;DHT22;12318;51.262;7.066;2023-03-14T11:22:24;7.20;99.90
24162;DHT22;12318;51.262;7.066;2023-03-14T11:27:41;7.20;99.90
24162;DHT22;12318;51.262;7.066;2023-03-14T11:33:31;6.90;99.90
24162;DHT22;12318;51.262;7.066;2023-03-14T11:36:08;6.70;99.90
24162;DHT22;12318;51.262;7.066;2023-03-14T11:38:48;6.70;99.90
24162;DHT22;12318;51.262;7.066;2023-03-14T11:41:32;6.70;99.90
24162;DHT22;12318;51.262;7.066;2023-03-14T11:44:03;6.90;99.90
24162;DHT22;12318;51.262;7.066;2023-03-14T11:46:34;6.60;99.90
24162;DHT22;12318;51.262;7.066;2023-03-14T11:49:26;6.30;99.90
24162;DHT22;12318;51.262;7.066;2023-03-14T11:52:17;6.40;99.90
24162;DHT22;12318;51.262;7.066;2023-03-14T11:57:21;6.40;99.90
24162;DHT22;12318;51.262;7.066;2023-03-14T11:59:55;6.30;99.90
24162;DHT22;12318;51.262;7.066;2023-03-14T12:05:22;6.30;99.90
24162;DHT22;12318;51.262;7.066;2023-03-14T12:11:04;6.30;99.90
24162;DHT22;12318;51.262;7.066;2023-03-14T12:13:41;6.30;99.90
24162;DHT22;12318;51.262;7.066;2023-03-14T12:16:50;6.20;99.90
24162;DHT22;12318;51.262;7.066;2023-03-14T12:24:57;6.00;99.90
24162;DHT22;12318;51.262;7.066;2023-03-14T12:30:27;6.00;99.90
24162;DHT22;12318;51.262;7.066;2023-03-14T12:33:28;6.00;99.90
24162;DHT22;12318;51.262;7.066;2023-03-14T12:36:03;5.80;99.90
24162;DHT22;12318;51.262;7.066;2023-03-14T12:39:12;5.90;99.90
24162;DHT22;12318;51.262;7.066;2023-03-14T12:48:06;6.50;99.90
24162;DHT22;12318;51.262;7.066;2023-03-14T12:50:54;6.80;99.90
24162;DHT22;12318;51.262;7.066;2023-03-14T13:01:34;7.00;99.90
24162;DHT22;12318;51.262;7.066;2023-03-14T13:04:11;7.10;99.90
24162;DHT22;12318;51.262;7.066;2023-03-14T13:06:57;7.00;99.90
24162;DHT22;12318;51.262;7.066;2023-03-14T13:12:09;6.50;99.90
24162;DHT22;12318;51.262;7.066;2023-03-14T13:14:54;6.20;99.90
24162;DHT22;12318;51.262;7.066;2023-03-14T13:17:31;6.00;99.90
24162;DHT22;12318;51.262;7.066;2023-03-14T13:23:28;5.80;99.90
24162;DHT22;12318;51.262;7.066;2023-03-14T13:25:56;5.30;99.90
24162;DHT22;12318;51.262;7.066;2023-03-14T13:28:48;5.40;99.90
24162;DHT22;12318;51.262;7.066;2023-03-14T13:31:25;5.40;99.90
24162;DHT22;12318;51.262;7.066;2023-03-14T13:34:04;5.40;99.90
24162;DHT22;12318;51.262;7.066;2023-03-14T13:36:33;5.60;99.90
24162;DHT22;12318;51.262;7.066;2023-03-14T13:39:00;5.80;99.90
24162;DHT22;12318;51.262;7.066;2023-03-14T13:41:29;6.00;99.90
24162;DHT22;12318;51.262;7.066;2023-03-14T13:44:02;5.90;99.90
24162;DHT22;12318;51.262;7.066;2023-03-14T13:46:29;6.10;99.90
24162;DHT22;12318;51.262;7.066;2023-03-14T13:48:58;6.20;99.90
24162;DHT22;12318;51.262;7.066;2023-03-14T13:51:26;6.00;99.90
24162;DHT22;12318;51.262;7.066;2023-03-14T13:53:57;5.70;99.90
24162;DHT22;12318;51.262;7.066;2023-03-14T13:56:30;5.50;99.90
24162;DHT22;12318;51.262;7.066;2023-03-14T13:58:56;5.50;99.90
24162;DHT22;12318;51.262;7.066;2023-03-14T14:01:33;5.60;99.90
24162;DHT22;12318;51.262;7.066;2023-03-14T14:04:14;5.50;99.90
24162;DHT22;12318;51.262;7.066;2023-03-14T14:06:46;5.60;99.90
24162;DHT22;12318;51.262;7.066;2023-03-14T14:09:16;5.70;99.90
24162;DHT22;12318;51.262;7.066;2023-03-14T14:14:16;5.90;99.90
24162;DHT22;12318;51.262;7.066;2023-03-14T14:16:44;6.00;99.90
24162;DHT22;12318;51.262;7.066;2023-03-14T14:19:11;6.30;99.90
24162;DHT22;12318;51.262;7.066;2023-03-14T14:21:38;6.30;99.90
24162;DHT22;12318;51.262;7.066;2023-03-14T14:24:10;6.50;99.90
24162;DHT22;12318;51.262;7.066;2023-03-14T14:27:14;6.60;99.90
24162;DHT22;12318;51.262;7.066;2023-03-14T14:29:33;6.80;99.90
24162;DHT22;12318;51.262;7.066;2023-03-14T14:34:37;6.60;99.90
24162;DHT22;12318;51.262;7.066;2023-03-14T14:37:04;6.90;99.90
24162;DHT22;12318;51.262;7.066;2023-03-14T14:39:30;7.10;99.90
24162;DHT22;12318;51.262;7.066;2023-03-14T14:41:57;6.70;99.90
24162;DHT22;12318;51.262;7.066;2023-03-14T14:44:36;6.60;99.90
24162;DHT22;12318;51.262;7.066;2023-03-14T14:47:03;6.60;99.90
24162;DHT22;12318;51.262;7.066;2023-03-14T14:49:30;6.80;99.90
24162;DHT22;12318;51.262;7.066;2023-03-14T14:52:03;6.70;99.90
24162;DHT22;12318;51.262;7.066;2023-03-14T14:54:47;6.70;98.20
24162;DHT22;12318;51.262;7.066;2023-03-14T14:57:24;6.70;95.00
24162;DHT22;12318;51.262;7.066;2023-03-14T14:59:50;6.70;93.10
24162;DHT22;12318;51.262;7.066;2023-03-14T15:02:39;6.70;89.00
24162;DHT22;12318;51.262;7.066;2023-03-14T15:05:23;6.70;87.40
24162;DHT22;12318;51.262;7.066;2023-03-14T15:07:49;6.80;90.90
24162;DHT22;12318;51.262;7.066;2023-03-14T15:10:18;6.80;91.20
24162;DHT22;12318;51.262;7.066;2023-03-14T15:12:44;6.70;86.70
24162;DHT22;12318;51.262;7.066;2023-03-14T15:15:12;6.60;88.00
24162;DHT22;12318;51.262;7.066;2023-03-14T15:17:38;6.60;86.60
24162;DHT22;12318;51.262;7.066;2023-03-14T15:20:06;6.60;84.70
24162;DHT22;12318;51.262;7.066;2023-03-14T15:22:32;6.70;87.90
24162;DHT22;12318;51.262;7.066;2023-03-14T15:24:58;6.70;89.10
24162;DHT22;12318;51.262;7.066;2023-03-14T15:27:23;6.70;87.20
24162;DHT22;12318;51.262;7.066;2023-03-14T15:29:50;6.80;87.30
24162;DHT22;12318;51.262;7.066;2023-03-14T15:32:16;6.80;85.50
24162;DHT22;12318;51.262;7.066;2023-03-14T15:34:43;6.90;85.30
24162;DHT22;12318;51.262;7.066;2023-03-14T15:37:16;6.90;88.90
24162;DHT22;12318;51.262;7.066;2023-03-14T15:39:43;6.70;85.10
24162;DHT22;12318;51.262;7.066;2023-03-14T15:42:09;6.60;84.20
24162;DHT22;12318;51.262;7.066;2023-03-14T15:44:35;6.70;85.10
24162;DHT22;12318;51.262;7.066;2023-03-14T15:47:03;6.60;83.00
24162;DHT22;12318;51.262;7.066;2023-03-14T15:49:34;6.60;78.80
24162;DHT22;12318;51.262;7.066;2023-03-14T15:52:00;6.50;79.80
24162;DHT22;12318;51.262;7.066;2023-03-14T15:54:27;6.60;82.60
24162;DHT22;12318;51.262;7.066;2023-03-14T15:56:54;6.50;83.70
24162;DHT22;12318;51.262;7.066;2023-03-14T15:59:21;6.50;79.80
24162;DHT22;12318;51.262;7.066;2023-03-14T16:01:47;6.50;81.00
24162;DHT22;12318;51.262;7.066;2023-03-14T16:04:15;6.50;82.80
24162;DHT22;12318;51.262;7.066;2023-03-14T16:06:41;6.40;81.90
24162;DHT22;12318;51.262;7.066;2023-03-14T16:09:13;6.40;79.10
24162;DHT22;12318;51.262;7.066;2023-03-14T16:11:39;6.30;76.30
24162;DHT22;12318;51.262;7.066;2023-03-14T16:14:05;6.20;76.70
24162;DHT22;12318;51.262;7.066;2023-03-14T16:16:31;6.30;74.90
24162;DHT22;12318;51.262;7.066;2023-03-14T16:18:57;6.20;74.70
24162;DHT22;12318;51.262;7.066;2023-03-14T16:21:23;6.20;76.10
24162;DHT22;12318;51.262;7.066;2023-03-14T16:23:48;6.20;74.10
24162;DHT22;12318;51.262;7.066;2023-03-14T16:26:17;6.20;78.10
24162;DHT22;12318;51.262;7.066;2023-03-14T16:28:43;6.20;74.40
24162;DHT22;12318;51.262;7.066;2023-03-14T16:31:12;6.20;80.00
24162;DHT22;12318;51.262;7.066;2023-03-14T16:33:39;6.20;80.20
24162;DHT22;12318;51.262;7.066;2023-03-14T16:36:07;6.20;75.30
24162;DHT22;12318;51.262;7.066;2023-03-14T16:38:34;6.20;78.30
24162;DHT22;12318;51.262;7.066;2023-03-14T16:41:12;6.10;80.60
24162;DHT22;12318;51.262;7.066;2023-03-14T16:43:38;6.10;78.00
24162;DHT22;12318;51.262;7.066;2023-03-14T16:46:06;6.10;79.90
24162;DHT22;12318;51.262;7.066;2023-03-14T16:48:32;6.00;76.70
24162;DHT22;12318;51.262;7.066;2023-03-14T16:50:58;6.00;79.40
24162;DHT22;12318;51.262;7.066;2023-03-14T16:53:24;6.00;74.90
24162;DHT22;12318;51.262;7.066;2023-03-14T16:55:54;6.00;76.90
24162;DHT22;12318;51.262;7.066;2023-03-14T16:58:20;5.90;76.90
24162;DHT22;12318;51.262;7.066;2023-03-14T17:00:46;5.90;78.10
24162;DHT22;12318;51.262;7.066;2023-03-14T17:03:12;5.90;79.10
24162;DHT22;12318;51.262;7.066;2023-03-14T17:05:44;5.90;78.90
24162;DHT22;12318;51.262;7.066;2023-03-14T17:08:10;5.90;83.90
24162;DHT22;12318;51.262;7.066;2023-03-14T17:10:36;5.80;80.90
24162;DHT22;12318;51.262;7.066;2023-03-14T17:13:01;5.80;81.90
24162;DHT22;12318;51.262;7.066;2023-03-14T17:15:27;5.80;80.60
24162;DHT22;12318;51.262;7.066;2023-03-14T17:17:53;5.70;79.40
24162;DHT22;12318;51.262;7.066;2023-03-14T17:20:19;5.70;83.90
24162;DHT22;12318;51.262;7.066;2023-03-14T17:22:45;5.60;84.80
24162;DHT22;12318;51.262;7.066;2023-03-14T17:25:10;5.50;84.00
24162;DHT22;12318;51.262;7.066;2023-03-14T17:27:36;5.50;82.50
24162;DHT22;12318;51.262;7.066;2023-03-14T17:30:03;5.50;79.40
24162;DHT22;12318;51.262;7.066;2023-03-14T17:32:29;5.50;81.60